Time;durP1;ratioP1;P1;durP2;ratioP2;P2;SDS_P1;SDS_P2;PMS_P1;PMS_P2;Temp;Humidity;BMP_temperature;BMP_pressure;BME280_temperature;BME280_humidity;BME280_pressure;Samples;Min_cycle;Max_cycle;Signal;HPM_P1;HPM_P2
2022/05/04 00:01:14;;;;;;;8.98;2.13;;;9.60;99.90;;;;;;5075092;28;20041;-71
2022/05/04 00:03:40;;;;;;;10.48;1.90;;;9.60;99.90;;;;;;5058121;28;20052;-71
2022/05/04 00:06:06;;;;;;;11.55;2.58;;;9.60;99.90;;;;;;5074404;28;20453;-71
2022/05/04 00:08:32;;;;;;;11.82;1.92;;;9.50;99.90;;;;;;5074445;28;20127;-71
2022/05/04 00:10:58;;;;;;;10.80;2.10;;;9.60;99.90;;;;;;5074385;28;20116;-71
2022/05/04 00:13:23;;;;;;;9.88;1.90;;;9.50;99.90;;;;;;5074344;28;20083;-70
2022/05/04 00:15:49;;;;;;;12.68;2.67;;;9.60;99.90;;;;;;5074136;28;20033;-70
2022/05/04 00:18:15;;;;;;;9.93;2.13;;;9.50;99.90;;;;;;5074541;28;20086;-70
2022/05/04 00:20:41;;;;;;;11.95;2.70;;;9.50;99.90;;;;;;5074224;28;20040;-70
2022/05/04 00:23:07;;;;;;;8.98;2.35;;;9.50;99.90;;;;;;5074156;28;20500;-70
2022/05/04 00:25:32;;;;;;;10.70;2.45;;;9.50;99.90;;;;;;5074064;28;20500;-71
2022/05/04 00:28:00;;;;;;;10.52;2.22;;;9.50;99.90;;;;;;5074113;28;20086;-71
2022/05/04 00:30:26;;;;;;;11.05;2.53;;;9.50;99.90;;;;;;5074006;28;20040;-71
2022/05/04 00:32:51;;;;;;;13.35;2.38;;;9.50;99.90;;;;;;5074085;28;20113;-71
2022/05/04 00:35:17;;;;;;;12.35;2.65;;;9.50;99.90;;;;;;5073872;28;20434;-71
2022/05/04 00:37:43;;;;;;;11.93;2.75;;;9.50;99.90;;;;;;5074166;28;20040;-70
2022/05/04 00:40:09;;;;;;;11.57;2.83;;;9.50;99.90;;;;;;5073853;28;20488;-70
2022/05/04 00:42:35;;;;;;;10.88;2.30;;;9.50;99.90;;;;;;5073778;28;20037;-70
2022/05/04 00:45:00;;;;;;;11.68;2.25;;;9.50;99.90;;;;;;5073760;28;20041;-70
2022/05/04 00:47:26;;;;;;;11.32;2.60;;;9.50;99.90;;;;;;5073772;28;20047;-70
2022/05/04 00:49:52;;;;;;;12.90;2.88;;;9.50;99.90;;;;;;5073639;28;20560;-71
2022/05/04 00:52:18;;;;;;;9.30;2.85;;;9.40;99.90;;;;;;5073749;28;20087;-71
2022/05/04 00:54:48;;;;;;;8.80;2.17;;;9.40;99.90;;;;;;5073819;28;20032;-71
2022/05/04 00:57:14;;;;;;;7.32;2.28;;;9.40;99.90;;;;;;5073412;28;20466;-71
2022/05/04 00:59:41;;;;;;;11.88;2.60;;;9.30;99.90;;;;;;5073462;28;20493;-71
2022/05/04 01:02:07;;;;;;;13.45;2.92;;;9.40;99.90;;;;;;5073407;28;20086;-71
2022/05/04 01:04:33;;;;;;;8.13;2.35;;;9.30;99.90;;;;;;5073372;28;20474;-71
2022/05/04 01:06:58;;;;;;;11.68;2.60;;;9.30;99.90;;;;;;5073208;28;20040;-71
2022/05/04 01:09:24;;;;;;;15.02;2.67;;;9.30;99.90;;;;;;5073302;28;20082;-71
2022/05/04 01:11:50;;;;;;;12.98;2.95;;;9.30;99.90;;;;;;5073140;28;20040;-71
2022/05/04 01:14:17;;;;;;;11.35;2.50;;;9.30;99.90;;;;;;5073127;28;20127;-71
2022/05/04 01:16:45;;;;;;;11.63;2.35;;;9.30;99.90;;;;;;5073265;28;20404;-71
2022/05/04 01:19:11;;;;;;;11.93;2.55;;;9.30;99.90;;;;;;5056440;28;20078;-71
2022/05/04 01:21:37;;;;;;;12.73;2.45;;;9.20;99.90;;;;;;5073130;28;20123;-71
2022/05/04 01:24:04;;;;;;;13.80;2.92;;;9.20;99.90;;;;;;5073022;28;20055;-71
2022/05/04 01:26:30;;;;;;;13.98;2.70;;;9.20;99.90;;;;;;5072436;28;20118;-71
2022/05/04 01:28:55;;;;;;;9.32;2.47;;;9.20;99.90;;;;;;5072789;28;20068;-71
2022/05/04 01:31:21;;;;;;;10.77;2.60;;;9.20;99.90;;;;;;5072830;28;20036;-71
2022/05/04 01:33:47;;;;;;;10.48;3.25;;;9.20;99.90;;;;;;5072729;28;20075;-71
2022/05/04 01:36:12;;;;;;;16.95;3.85;;;9.20;99.90;;;;;;5072662;28;20493;-70
2022/05/04 01:38:38;;;;;;;10.93;3.00;;;9.30;99.90;;;;;;5072678;28;20035;-70
2022/05/04 01:41:04;;;;;;;10.65;2.90;;;9.20;99.90;;;;;;5072911;28;20090;-70
2022/05/04 01:43:29;;;;;;;13.57;3.10;;;9.30;99.90;;;;;;5072607;28;20459;-70
2022/05/04 01:45:55;;;;;;;13.07;2.72;;;9.20;99.90;;;;;;5072485;28;20040;-70
2022/05/04 01:48:21;;;;;;;14.20;3.00;;;9.20;99.90;;;;;;5072353;28;20040;-70
2022/05/04 01:50:47;;;;;;;11.35;2.67;;;9.30;99.90;;;;;;5072463;28;20474;-70
2022/05/04 01:53:12;;;;;;;11.10;2.63;;;9.20;99.90;;;;;;5072384;28;20045;-71
2022/05/04 01:55:40;;;;;;;10.98;3.17;;;9.20;99.90;;;;;;5072293;28;20038;-71
2022/05/04 01:58:07;;;;;;;9.55;2.70;;;9.20;99.90;;;;;;5072567;28;20504;-71
2022/05/04 02:00:33;;;;;;;11.32;2.60;;;9.10;99.90;;;;;;5055647;28;20029;-71
2022/05/04 02:02:59;;;;;;;13.98;2.80;;;9.10;99.90;;;;;;5072496;28;20037;-71
2022/05/04 02:05:26;;;;;;;10.60;2.72;;;9.10;99.90;;;;;;5072129;28;20044;-71
2022/05/04 02:07:51;;;;;;;11.43;3.28;;;9.10;99.90;;;;;;5072460;28;20052;-71
2022/05/04 02:10:17;;;;;;;9.68;2.28;;;9.10;99.90;;;;;;5072411;28;20385;-71
2022/05/04 02:12:43;;;;;;;10.50;2.35;;;9.00;99.90;;;;;;5072181;28;20055;-70
2022/05/04 02:15:10;;;;;;;9.85;2.70;;;9.00;99.90;;;;;;5071984;28;20041;-70
2022/05/04 02:17:37;;;;;;;13.77;2.80;;;9.00;99.90;;;;;;5072617;28;20041;-70
2022/05/04 02:20:03;;;;;;;10.90;2.38;;;9.10;99.90;;;;;;5073596;28;20040;-70
2022/05/04 02:22:29;;;;;;;12.65;3.05;;;9.00;99.90;;;;;;5072236;28;20037;-70
2022/05/04 02:24:54;;;;;;;14.30;3.00;;;9.00;99.90;;;;;;5072188;28;20040;-70
2022/05/04 02:27:20;;;;;;;14.05;3.05;;;9.00;99.90;;;;;;5071896;28;20451;-70
2022/05/04 02:29:45;;;;;;;11.90;2.58;;;9.00;99.90;;;;;;5055216;28;20037;-70
2022/05/04 02:32:11;;;;;;;10.23;2.58;;;9.00;99.90;;;;;;5055667;28;20120;-70
2022/05/04 02:37:54;;;;;;;13.35;2.80;;;9.00;99.90;;;;;;5071889;28;20040;-70
2022/05/04 02:40:07;;;;;;;9.05;2.50;;;8.90;99.90;;;;;;5071739;28;20044;-70
2022/05/04 02:42:33;;;;;;;14.63;3.03;;;8.90;99.90;;;;;;5071750;28;20416;-70
2022/05/04 02:44:58;;;;;;;15.63;3.22;;;8.90;99.90;;;;;;5072052;28;20036;-70
2022/05/04 02:47:24;;;;;;;11.70;3.05;;;8.80;99.90;;;;;;5071744;28;20413;-70
2022/05/04 02:49:50;;;;;;;12.98;2.97;;;8.80;99.90;;;;;;5071724;28;20511;-70
2022/05/04 02:52:15;;;;;;;9.15;2.78;;;8.80;99.90;;;;;;5071861;28;20040;-70
2022/05/04 02:54:41;;;;;;;10.85;2.90;;;8.80;99.90;;;;;;5071680;28;20041;-70
2022/05/04 02:57:07;;;;;;;11.88;3.28;;;8.80;99.90;;;;;;5071616;28;20117;-70
2022/05/04 02:59:32;;;;;;;11.55;2.58;;;8.90;99.90;;;;;;5072876;28;20068;-70
2022/05/04 03:04:42;;;;;;;10.48;2.13;;;8.80;99.90;;;;;;5071598;28;20071;-70
2022/05/04 03:07:07;;;;;;;14.80;3.22;;;8.80;99.90;;;;;;5071576;28;20064;-70
2022/05/04 03:09:33;;;;;;;11.48;2.95;;;8.80;99.90;;;;;;5071558;28;20040;-70
2022/05/04 03:11:59;;;;;;;9.75;2.25;;;8.80;99.90;;;;;;5071665;28;20044;-70
2022/05/04 03:14:28;;;;;;;9.43;2.25;;;8.80;99.90;;;;;;5071465;28;20124;-70
2022/05/04 03:16:55;;;;;;;13.73;2.50;;;8.80;99.90;;;;;;5071648;28;20455;-70
2022/05/04 03:19:22;;;;;;;10.02;2.75;;;8.80;99.90;;;;;;5071712;28;20040;-70
2022/05/04 03:21:48;;;;;;;7.97;2.10;;;8.80;99.90;;;;;;5054700;28;20473;-70
2022/05/04 03:24:13;;;;;;;10.18;2.50;;;8.80;99.90;;;;;;5071625;28;20079;-70
2022/05/04 03:26:39;;;;;;;9.50;2.45;;;8.80;99.90;;;;;;5071289;28;20071;-70
2022/05/04 03:29:05;;;;;;;12.05;2.50;;;8.80;99.90;;;;;;5071365;28;20043;-70
2022/05/04 03:31:31;;;;;;;11.52;2.40;;;8.80;99.90;;;;;;5071325;28;20075;-70
2022/05/04 03:33:57;;;;;;;9.20;2.47;;;8.80;99.90;;;;;;5071219;28;20068;-70
2022/05/04 03:36:22;;;;;;;11.25;2.40;;;8.80;99.90;;;;;;5071221;28;20037;-70
2022/05/04 03:38:48;;;;;;;11.65;2.47;;;8.80;99.90;;;;;;5071222;28;20094;-70
2022/05/04 03:41:14;;;;;;;10.48;2.72;;;8.80;99.90;;;;;;5071245;28;20051;-70
2022/05/04 03:43:40;;;;;;;12.85;2.28;;;8.80;99.90;;;;;;5071163;28;20123;-70
2022/05/04 03:46:12;;;;;;;8.85;2.40;;;8.70;99.90;;;;;;5071105;28;20048;-70
2022/05/04 03:48:37;;;;;;;13.53;2.83;;;8.80;99.90;;;;;;5054457;28;20036;-70
2022/05/04 03:51:03;;;;;;;13.25;2.70;;;8.70;99.90;;;;;;5073604;28;20077;-70
2022/05/04 03:53:28;;;;;;;8.30;2.72;;;8.70;99.90;;;;;;5074662;28;20040;-70
2022/05/04 03:55:54;;;;;;;10.77;2.78;;;8.70;99.90;;;;;;5074559;28;20043;-70
2022/05/04 03:58:20;;;;;;;15.20;2.97;;;8.70;99.90;;;;;;5074637;28;20043;-70
2022/05/04 04:00:45;;;;;;;9.07;2.60;;;8.80;99.90;;;;;;5074604;28;20040;-70
2022/05/04 04:03:11;;;;;;;8.95;2.63;;;8.80;99.90;;;;;;5074511;28;20039;-70
2022/05/04 04:05:36;;;;;;;9.40;2.03;;;8.80;99.90;;;;;;5074705;28;20083;-70
2022/05/04 04:08:02;;;;;;;12.20;2.92;;;8.80;99.90;;;;;;5074395;28;20496;-70
2022/05/04 04:10:27;;;;;;;11.15;2.55;;;8.80;99.90;;;;;;5074455;28;20102;-70
2022/05/04 04:12:53;;;;;;;10.82;2.72;;;8.80;99.90;;;;;;5074300;28;20448;-70
2022/05/04 04:15:18;;;;;;;13.50;2.92;;;8.80;99.90;;;;;;5074259;28;20036;-70
2022/05/04 04:17:44;;;;;;;10.88;2.38;;;8.80;99.90;;;;;;5074265;28;20094;-70
2022/05/04 04:22:54;;;;;;;11.05;2.92;;;8.80;99.90;;;;;;5074221;28;20467;-70
2022/05/04 04:25:19;;;;;;;8.13;2.65;;;8.80;99.90;;;;;;5074080;28;20036;-70
2022/05/04 04:27:45;;;;;;;12.15;2.63;;;8.80;99.90;;;;;;5074077;28;20071;-70
2022/05/04 04:30:11;;;;;;;10.55;2.50;;;8.80;99.90;;;;;;5057364;28;20082;-70
2022/05/04 04:32:37;;;;;;;11.10;2.55;;;8.80;99.90;;;;;;5074128;28;20044;-70
2022/05/04 04:35:03;;;;;;;10.95;2.60;;;8.80;99.90;;;;;;5073850;28;20037;-70
2022/05/04 04:37:29;;;;;;;14.52;3.03;;;8.80;99.90;;;;;;5073865;28;20496;-70
2022/05/04 04:39:54;;;;;;;11.45;2.42;;;8.90;99.90;;;;;;5074097;28;20051;-70
2022/05/04 04:42:20;;;;;;;16.80;2.65;;;8.80;99.90;;;;;;5073849;28;20044;-70
2022/05/04 04:44:45;;;;;;;9.52;2.50;;;8.90;99.90;;;;;;5073763;28;20051;-70
2022/05/04 04:47:11;;;;;;;7.80;2.00;;;8.90;99.90;;;;;;5073787;28;20048;-70
2022/05/04 04:49:36;;;;;;;8.82;2.15;;;8.80;99.90;;;;;;5073684;28;20044;-70
2022/05/04 04:52:02;;;;;;;7.53;2.00;;;8.90;99.90;;;;;;5073818;28;20122;-70
2022/05/04 04:54:28;;;;;;;9.35;2.35;;;8.90;99.90;;;;;;5073508;28;20488;-70
2022/05/04 04:56:53;;;;;;;9.55;2.00;;;8.90;99.90;;;;;;5073473;28;20036;-70
2022/05/04 04:59:19;;;;;;;11.32;2.53;;;8.90;99.90;;;;;;5073742;28;20044;-70
2022/05/04 05:01:44;;;;;;;10.07;2.65;;;8.90;99.90;;;;;;5072323;28;20463;-70
2022/05/04 05:04:10;;;;;;;11.32;2.53;;;8.90;99.90;;;;;;5073673;28;20063;-70
2022/05/04 05:06:35;;;;;;;8.65;2.92;;;8.90;99.90;;;;;;5073573;28;20504;-70
2022/05/04 05:09:01;;;;;;;9.13;2.97;;;9.00;99.90;;;;;;5073546;28;20466;-70
2022/05/04 05:11:26;;;;;;;11.27;2.70;;;9.00;99.90;;;;;;5073206;28;20489;-70
2022/05/04 05:16:36;;;;;;;13.57;2.90;;;9.00;99.90;;;;;;5073286;28;20040;-70
2022/05/04 05:19:02;;;;;;;10.70;2.63;;;9.00;99.90;;;;;;5073046;28;20556;-70
2022/05/04 05:21:28;;;;;;;12.95;3.03;;;9.10;99.90;;;;;;5072914;28;20070;-70
2022/05/04 05:23:53;;;;;;;10.40;2.63;;;9.10;99.90;;;;;;5073036;28;20044;-70
2022/05/04 05:26:19;;;;;;;9.60;2.33;;;9.10;99.90;;;;;;5072841;28;20039;-70
2022/05/04 05:28:44;;;;;;;14.13;3.45;;;9.10;99.90;;;;;;5072811;28;20089;-70
2022/05/04 05:31:10;;;;;;;9.38;2.40;;;9.20;99.90;;;;;;5072835;28;20045;-70
2022/05/04 05:33:35;;;;;;;8.85;2.22;;;9.20;99.90;;;;;;5072688;28;20087;-70
2022/05/04 05:36:01;;;;;;;9.85;2.85;;;9.20;99.90;;;;;;5072657;28;20033;-70
2022/05/04 05:38:27;;;;;;;9.80;2.50;;;9.20;99.90;;;;;;5056335;28;20040;-70
2022/05/04 05:40:53;;;;;;;11.23;2.50;;;9.30;99.90;;;;;;5072634;28;20096;-70
2022/05/04 05:43:18;;;;;;;8.05;2.53;;;9.30;99.90;;;;;;5072655;28;20127;-71
2022/05/04 05:45:44;;;;;;;7.63;1.85;;;9.40;99.90;;;;;;5072482;28;20122;-71
2022/05/04 05:48:09;;;;;;;8.60;2.28;;;9.40;99.90;;;;;;5072319;28;20074;-70
2022/05/04 05:50:35;;;;;;;9.93;2.00;;;9.50;99.90;;;;;;5072502;28;20040;-70
2022/05/04 05:53:02;;;;;;;9.15;2.15;;;9.50;99.90;;;;;;5072373;28;20097;-70
2022/05/04 05:55:28;;;;;;;11.45;2.10;;;9.60;99.90;;;;;;5072398;28;20094;-70
2022/05/04 05:57:54;;;;;;;9.85;1.90;;;9.70;99.90;;;;;;5072384;28;20040;-70
2022/05/04 06:00:20;;;;;;;11.85;1.80;;;9.70;99.90;;;;;;5056201;28;20143;-70
2022/05/04 06:02:45;;;;;;;11.65;2.33;;;9.70;99.90;;;;;;5072257;28;20051;-71
2022/05/04 06:05:12;;;;;;;9.75;1.95;;;9.70;99.90;;;;;;5072133;28;20123;-71
2022/05/04 06:07:38;;;;;;;9.90;1.98;;;9.70;99.90;;;;;;5055595;28;20075;-70
2022/05/04 06:10:05;;;;;;;9.05;1.92;;;9.80;99.90;;;;;;5055509;28;20086;-70
2022/05/04 06:12:31;;;;;;;7.25;2.00;;;9.80;99.90;;;;;;5071808;28;20043;-70
2022/05/04 06:14:57;;;;;;;11.32;2.58;;;9.90;99.90;;;;;;5072073;28;20032;-70
2022/05/04 06:17:22;;;;;;;8.85;1.98;;;9.90;99.90;;;;;;5072033;28;20040;-70
2022/05/04 06:19:48;;;;;;;9.45;1.90;;;10.00;99.90;;;;;;5072020;28;20050;-70
2022/05/04 06:22:14;;;;;;;6.65;1.65;;;10.00;99.90;;;;;;5072031;28;20044;-70
2022/05/04 06:24:40;;;;;;;9.13;2.13;;;10.00;99.90;;;;;;5071973;28;20048;-70
2022/05/04 06:27:06;;;;;;;9.15;1.92;;;10.00;99.90;;;;;;5071921;28;20096;-70
2022/05/04 06:35:06;;;;;;;11.27;2.70;;;10.20;99.90;;;;;;5071857;28;20412;-70
2022/05/04 06:37:31;;;;;;;9.05;1.88;;;10.20;99.90;;;;;;5072667;28;20385;-70
2022/05/04 06:39:57;;;;;;;8.77;1.90;;;10.20;99.70;;;;;;5071859;28;20066;-70
2022/05/04 06:42:23;;;;;;;9.30;2.30;;;10.30;99.70;;;;;;5072148;28;20047;-70
2022/05/04 06:44:48;;;;;;;10.98;2.40;;;10.40;98.30;;;;;;5071793;28;20408;-70
2022/05/04 06:47:14;;;;;;;10.85;1.88;;;10.40;98.40;;;;;;5071805;28;20131;-70
2022/05/04 06:49:40;;;;;;;8.52;2.38;;;10.40;98.30;;;;;;5071768;28;20037;-70
2022/05/04 06:52:06;;;;;;;9.20;2.17;;;10.40;97.40;;;;;;5071881;28;20129;-70
2022/05/04 06:54:32;;;;;;;8.63;2.30;;;10.50;97.20;;;;;;5071704;28;20048;-70
2022/05/04 06:56:57;;;;;;;10.50;2.15;;;10.50;97.20;;;;;;5071654;28;20036;-70
2022/05/04 06:59:23;;;;;;;11.45;2.28;;;10.60;97.80;;;;;;5071618;28;20115;-70
2022/05/04 07:01:49;;;;;;;10.18;2.22;;;10.70;98.10;;;;;;5054937;28;20042;-70
2022/05/04 07:04:16;;;;;;;13.65;2.25;;;10.70;97.20;;;;;;5055117;28;20076;-70
2022/05/04 07:06:41;;;;;;;9.50;2.30;;;10.70;96.30;;;;;;5071540;28;20044;-70
2022/05/04 07:09:07;;;;;;;9.70;2.10;;;10.70;96.70;;;;;;5071486;28;20071;-70
2022/05/04 07:11:33;;;;;;;10.05;2.10;;;10.70;96.90;;;;;;5073325;28;20068;-70
2022/05/04 07:13:58;;;;;;;18.70;3.05;;;10.80;97.50;;;;;;5071363;28;20520;-70
2022/05/04 07:16:24;;;;;;;11.77;2.40;;;10.70;95.60;;;;;;5071692;28;20045;-70
2022/05/04 07:18:49;;;;;;;14.10;2.40;;;10.70;95.30;;;;;;5071514;28;20040;-70
2022/05/04 07:21:15;;;;;;;10.00;2.17;;;10.70;96.10;;;;;;5071911;28;20044;-71
2022/05/04 07:23:40;;;;;;;9.25;2.13;;;10.80;96.10;;;;;;5071694;28;20028;-71
2022/05/04 07:26:06;;;;;;;9.80;1.92;;;10.80;95.50;;;;;;5057014;28;20548;-71
2022/05/04 07:28:32;;;;;;;10.20;2.08;;;11.00;95.20;;;;;;5075202;28;20089;-71
2022/05/04 07:30:57;;;;;;;9.07;2.35;;;11.00;94.00;;;;;;5075135;28;20131;-70
2022/05/04 07:33:23;;;;;;;8.63;2.22;;;11.20;94.80;;;;;;5075033;28;20037;-70
2022/05/04 07:35:48;;;;;;;8.23;1.92;;;11.20;93.00;;;;;;5075007;28;20159;-70
2022/05/04 07:38:14;;;;;;;10.13;1.85;;;11.30;92.60;;;;;;5075273;28;20101;-70
2022/05/04 07:43:23;;;;;;;9.75;2.20;;;11.30;91.30;;;;;;5075114;28;20549;-70
2022/05/04 07:45:49;;;;;;;11.35;1.98;;;11.30;90.80;;;;;;5074875;28;20079;-70
2022/05/04 07:48:14;;;;;;;14.77;2.50;;;11.40;92.50;;;;;;5074753;28;20040;-70
2022/05/04 07:50:40;;;;;;;16.45;2.63;;;11.30;92.60;;;;;;5074796;28;20048;-70
2022/05/04 07:53:09;;;;;;;7.68;1.92;;;11.30;92.60;;;;;;5074808;28;20040;-70
2022/05/04 07:55:36;;;;;;;13.52;2.30;;;11.30;92.80;;;;;;5074646;28;20082;-70
2022/05/04 07:58:02;;;;;;;10.65;2.20;;;11.20;92.40;;;;;;5074693;28;20044;-70
2022/05/04 08:05:56;;;;;;;8.90;1.95;;;11.00;93.80;;;;;;5074535;28;20044;-70
2022/05/04 08:08:21;;;;;;;11.25;2.13;;;10.90;93.30;;;;;;5074497;28;20037;-70
2022/05/04 08:10:47;;;;;;;8.23;2.10;;;10.90;93.10;;;;;;5074685;28;20052;-70
2022/05/04 08:13:13;;;;;;;6.53;1.70;;;10.90;93.90;;;;;;5074293;28;20535;-70
2022/05/04 08:15:38;;;;;;;11.80;2.08;;;10.90;93.50;;;;;;5074464;28;20032;-70
2022/05/04 08:18:04;;;;;;;9.75;2.38;;;11.00;93.80;;;;;;5074180;28;20485;-70
2022/05/04 08:20:30;;;;;;;12.70;2.58;;;11.20;93.60;;;;;;5074215;28;20032;-70
2022/05/04 08:22:57;;;;;;;9.82;1.88;;;11.30;93.10;;;;;;5057480;28;20098;-70
2022/05/04 08:25:24;;;;;;;10.10;2.03;;;11.60;92.90;;;;;;5074281;28;20504;-71
2022/05/04 08:27:50;;;;;;;9.13;2.08;;;11.80;90.60;;;;;;5074438;28;20044;-70
2022/05/04 08:30:15;;;;;;;9.07;1.90;;;11.90;87.10;;;;;;5074026;28;20033;-70
2022/05/04 08:32:44;;;;;;;9.75;2.10;;;12.00;85.00;;;;;;5073859;28;20119;-70
2022/05/04 08:35:12;;;;;;;8.05;1.65;;;12.20;90.60;;;;;;5073894;28;20445;-70
2022/05/04 08:37:38;;;;;;;7.50;2.25;;;12.40;87.70;;;;;;5073772;28;20044;-70
2022/05/04 08:40:04;;;;;;;11.43;2.63;;;12.50;85.60;;;;;;5073896;28;20048;-70
2022/05/04 08:42:30;;;;;;;9.32;1.75;;;12.60;83.30;;;;;;5074030;28;20045;-70
2022/05/04 08:44:57;;;;;;;10.23;2.10;;;12.70;85.10;;;;;;5073770;28;20091;-70
2022/05/04 08:47:28;;;;;;;8.70;1.77;;;12.80;84.40;;;;;;5074370;28;20044;-70
2022/05/04 08:49:54;;;;;;;9.65;2.15;;;12.80;79.80;;;;;;5073790;28;20040;-70
2022/05/04 08:52:21;;;;;;;8.98;2.00;;;12.90;75.70;;;;;;5073615;28;20056;-70
2022/05/04 08:54:48;;;;;;;7.28;1.63;;;13.00;77.20;;;;;;5073632;28;20501;-70
2022/05/04 08:57:14;;;;;;;8.90;2.15;;;13.20;75.70;;;;;;5073518;28;20115;-70
2022/05/04 08:59:43;;;;;;;10.15;1.92;;;13.40;75.00;;;;;;5074992;28;20112;-70
2022/05/04 09:02:10;;;;;;;11.50;2.47;;;13.60;73.20;;;;;;5073446;28;20047;-70
2022/05/04 09:04:39;;;;;;;9.25;2.55;;;13.70;73.50;;;;;;5073643;28;20063;-70
2022/05/04 09:07:20;;;;;;;8.48;1.75;;;14.00;72.10;;;;;;5056570;28;20044;-71
2022/05/04 09:09:46;;;;;;;8.40;1.98;;;14.20;64.10;;;;;;5075128;28;20435;-71
2022/05/04 09:12:15;;;;;;;12.45;2.35;;;14.30;65.80;;;;;;5073171;28;20493;-71
2022/05/04 09:14:41;;;;;;;8.32;2.03;;;14.40;65.80;;;;;;5073387;28;20036;-71
2022/05/04 09:17:17;;;;;;;8.55;2.10;;;14.30;64.30;;;;;;5073238;28;20060;-71
2022/05/04 09:22:40;;;;;;;10.13;2.33;;;14.50;61.70;;;;;;5073062;28;20489;-71
2022/05/04 09:25:16;;;;;;;7.75;2.08;;;14.60;62.40;;;;;;5057307;28;20104;-71
2022/05/04 09:27:42;;;;;;;7.30;1.95;;;14.80;59.40;;;;;;5072980;28;20045;-71
2022/05/04 09:30:08;;;;;;;10.07;1.98;;;15.00;59.40;;;;;;5073389;28;20101;-70
2022/05/04 09:32:39;;;;;;;10.70;2.30;;;15.10;58.70;;;;;;5072876;28;20520;-71
2022/05/04 09:35:10;;;;;;;7.72;2.13;;;15.30;59.00;;;;;;5073268;28;20036;-71
2022/05/04 09:45:55;;;;;;;8.60;2.00;;;15.20;59.70;;;;;;5072571;28;20083;-71
2022/05/04 09:48:33;;;;;;;7.15;2.20;;;14.90;59.70;;;;;;5071941;28;20055;-71
2022/05/04 09:51:04;;;;;;;8.02;2.05;;;14.80;60.90;;;;;;5072540;28;20044;-72
2022/05/04 09:53:30;;;;;;;7.22;1.65;;;14.90;60.90;;;;;;5072441;28;20072;-72
2022/05/04 09:55:56;;;;;;;8.05;1.80;;;15.10;61.00;;;;;;5055682;28;20040;-72
2022/05/04 09:58:26;;;;;;;8.25;1.90;;;15.30;60.70;;;;;;5072432;28;20044;-72
2022/05/04 10:00:52;;;;;;;11.77;2.30;;;15.40;59.80;;;;;;5072646;28;20049;-72
2022/05/04 10:03:19;;;;;;;5.65;1.98;;;15.50;58.80;;;;;;5072343;28;20083;-72
2022/05/04 10:05:49;;;;;;;11.63;1.95;;;15.70;57.70;;;;;;5072138;28;20481;-72
2022/05/04 10:08:16;;;;;;;10.63;2.05;;;15.80;56.80;;;;;;5072196;28;20122;-72
2022/05/04 10:10:43;;;;;;;8.25;2.10;;;16.10;57.40;;;;;;5072153;28;20428;-71
2022/05/04 10:13:08;;;;;;;9.27;1.90;;;16.30;57.20;;;;;;5072456;28;20036;-71
2022/05/04 10:15:37;;;;;;;10.00;1.90;;;16.50;55.80;;;;;;5073926;28;20065;-71
2022/05/04 10:18:17;;;;;;;6.50;1.92;;;16.60;55.60;;;;;;5072393;28;20032;-71
2022/05/04 10:21:01;;;;;;;10.52;2.10;;;16.70;55.20;;;;;;5072279;28;20044;-71
2022/05/04 10:23:30;;;;;;;6.05;1.85;;;16.50;55.60;;;;;;5073437;28;20041;-71
2022/05/04 10:25:59;;;;;;;8.75;2.00;;;16.30;55.40;;;;;;5073416;28;20496;-71
2022/05/04 10:28:25;;;;;;;11.27;2.05;;;16.20;54.70;;;;;;5072027;28;20051;-71
2022/05/04 10:30:58;;;;;;;9.90;2.20;;;16.10;55.30;;;;;;5072054;28;20033;-71
2022/05/04 10:33:31;;;;;;;10.73;2.10;;;16.20;56.20;;;;;;5072052;28;20123;-72
2022/05/04 10:36:12;;;;;;;7.85;2.45;;;16.40;56.40;;;;;;5071888;28;20040;-71
2022/05/04 10:38:42;;;;;;;9.07;1.95;;;16.50;55.50;;;;;;5072148;28;20067;-71
2022/05/04 10:41:09;;;;;;;8.38;2.13;;;16.70;55.40;;;;;;5071796;28;20040;-71
2022/05/04 10:43:42;;;;;;;12.98;2.30;;;16.90;55.20;;;;;;5071813;28;20059;-71
2022/05/04 10:46:11;;;;;;;;;;;16.80;53.80;;;;;;5055457;28;20036;-71
2022/05/04 10:48:57;;;;;;;9.57;2.40;;;16.70;54.70;;;;;;5071680;28;20378;-71
2022/05/04 10:51:28;;;;;;;8.45;2.17;;;16.80;52.50;;;;;;5071744;28;20040;-71
2022/05/04 10:54:11;;;;;;;10.35;2.30;;;16.90;53.70;;;;;;5071704;28;20070;-71
2022/05/04 10:56:40;;;;;;;9.43;2.10;;;16.90;53.80;;;;;;5071709;28;20504;-71
2022/05/04 10:59:07;;;;;;;8.88;1.90;;;17.20;55.40;;;;;;5071673;28;20041;-71
2022/05/04 11:01:35;;;;;;;10.35;1.98;;;17.20;53.90;;;;;;5075001;28;20036;-71
2022/05/04 11:04:10;;;;;;;7.15;2.03;;;17.40;53.20;;;;;;5075753;28;20462;-71
2022/05/04 11:06:42;;;;;;;9.88;2.20;;;17.50;52.30;;;;;;5075593;28;20044;-71
2022/05/04 11:09:14;;;;;;;7.63;1.90;;;17.80;49.50;;;;;;5076282;28;20135;-71
2022/05/04 11:11:45;;;;;;;8.60;2.00;;;17.90;50.40;;;;;;5075565;28;20047;-71
2022/05/04 11:14:12;;;;;;;7.43;1.83;;;18.10;51.20;;;;;;5075525;28;20383;-71
2022/05/04 11:16:39;;;;;;;8.65;1.58;;;18.30;52.00;;;;;;5075348;28;20040;-71
2022/05/04 11:19:06;;;;;;;11.20;2.30;;;18.50;50.90;;;;;;5075424;28;20467;-71
2022/05/04 11:21:33;;;;;;;9.02;2.20;;;18.60;50.40;;;;;;5076865;28;20090;-71
2022/05/04 11:24:00;;;;;;;8.23;2.13;;;18.80;50.40;;;;;;5075309;28;20074;-71
2022/05/04 11:26:34;;;;;;;9.82;2.35;;;18.80;49.70;;;;;;5075261;28;20053;-71
2022/05/04 11:29:00;;;;;;;6.50;2.00;;;18.80;48.60;;;;;;5075309;28;20535;-71
2022/05/04 11:31:25;;;;;;;6.55;2.25;;;18.80;48.80;;;;;;5075180;28;20075;-71
2022/05/04 11:33:51;;;;;;;7.97;1.60;;;18.90;49.50;;;;;;5075197;28;20045;-71
2022/05/04 11:36:19;;;;;;;7.47;2.08;;;19.10;49.40;;;;;;5075007;28;20040;-71
2022/05/04 11:38:46;;;;;;;7.40;2.10;;;19.20;49.30;;;;;;5075052;28;20040;-71
2022/05/04 11:41:12;;;;;;;7.43;2.17;;;19.30;49.50;;;;;;5075005;28;20570;-71
2022/05/04 11:43:38;;;;;;;8.25;2.13;;;19.20;49.00;;;;;;5076719;28;20135;-71
2022/05/04 11:46:09;;;;;;;9.30;2.30;;;19.20;49.10;;;;;;5075173;28;20072;-71
2022/05/04 11:48:43;;;;;;;8.20;2.00;;;19.20;48.80;;;;;;5074704;28;20428;-71
2022/05/04 11:51:16;;;;;;;8.93;2.30;;;19.30;48.70;;;;;;5075091;28;20041;-71
2022/05/04 11:53:41;;;;;;;9.07;2.20;;;19.30;48.10;;;;;;5074854;28;20063;-71
2022/05/04 11:56:08;;;;;;;10.05;2.20;;;19.50;48.10;;;;;;5074927;28;20489;-71
2022/05/04 11:58:35;;;;;;;6.47;1.98;;;19.50;48.30;;;;;;5074702;28;20036;-71
2022/05/04 12:01:02;;;;;;;8.57;2.33;;;19.70;48.00;;;;;;5075383;28;20036;-71
2022/05/04 12:03:30;;;;;;;7.97;2.00;;;19.90;47.90;;;;;;5074698;28;20493;-71
2022/05/04 12:05:56;;;;;;;9.30;2.13;;;19.90;46.70;;;;;;5081947;22;20068;-70
2022/05/04 12:08:23;;;;;;;7.38;1.98;;;20.00;47.00;;;;;;5034936;28;20037;-71
2022/05/04 12:10:50;;;;;;;11.20;2.20;;;20.00;46.60;;;;;;5017588;28;20040;-71
2022/05/04 12:13:23;;;;;;;9.05;2.00;;;20.10;46.50;;;;;;5034520;28;20042;-71
2022/05/04 12:15:50;;;;;;;11.85;2.45;;;20.00;44.90;;;;;;5034784;28;20091;-71
2022/05/04 12:18:16;;;;;;;7.38;2.42;;;19.90;45.30;;;;;;5034436;28;20390;-71
2022/05/04 12:20:47;;;;;;;9.13;2.38;;;19.80;44.60;;;;;;5034424;28;20087;-71
2022/05/04 12:23:13;;;;;;;10.90;2.10;;;19.80;45.40;;;;;;5034368;28;20394;-71
2022/05/04 12:25:42;;;;;;;7.28;2.58;;;19.80;45.70;;;;;;5034231;28;20444;-71
2022/05/04 12:28:09;;;;;;;8.38;2.40;;;19.90;46.20;;;;;;5034569;28;20045;-73
2022/05/04 12:33:35;;;;;;;7.90;1.88;;;19.70;45.60;;;;;;5034129;28;20049;-73
2022/05/04 12:36:09;;;;;;;8.07;2.20;;;19.70;46.90;;;;;;5034095;28;20425;-73
2022/05/04 12:38:36;;;;;;;9.18;2.90;;;19.60;46.90;;;;;;5034058;28;20060;-73
2022/05/04 12:41:03;;;;;;;5.88;1.98;;;19.60;47.20;;;;;;5034034;28;20046;-73
2022/05/04 12:43:32;;;;;;;9.80;2.35;;;19.80;47.40;;;;;;5033970;28;20116;-71
2022/05/04 12:45:58;;;;;;;15.68;3.00;;;19.90;46.70;;;;;;5033833;28;20041;-70
2022/05/04 12:48:25;;;;;;;13.85;2.70;;;19.90;47.10;;;;;;5033914;28;20417;-70
2022/05/04 12:50:53;;;;;;;5.38;1.95;;;20.00;47.40;;;;;;5034089;28;20107;-70
2022/05/04 12:53:19;;;;;;;10.27;2.30;;;20.00;46.50;;;;;;5033725;28;20044;-70
2022/05/04 12:58:28;;;;;;;9.32;2.67;;;20.10;46.70;;;;;;5034290;28;20037;-70
2022/05/04 13:00:55;;;;;;;10.25;2.30;;;20.20;47.20;;;;;;5034715;28;20369;-70
2022/05/04 13:03:21;;;;;;;8.65;2.28;;;20.30;46.70;;;;;;5017111;28;20038;-70
2022/05/04 13:05:47;;;;;;;8.25;2.40;;;20.40;46.30;;;;;;5033343;28;20041;-70
2022/05/04 13:08:13;;;;;;;6.78;1.95;;;20.50;46.20;;;;;;5033704;28;20041;-70
2022/05/04 13:10:38;;;;;;;10.50;2.15;;;20.50;45.50;;;;;;5033455;28;20045;-70
2022/05/04 13:13:04;;;;;;;9.80;2.25;;;20.60;46.50;;;;;;5016856;28;20044;-71
2022/05/04 13:15:31;;;;;;;8.38;2.28;;;20.60;46.40;;;;;;5033585;28;20469;-71
2022/05/04 13:17:56;;;;;;;5.55;2.05;;;20.80;46.20;;;;;;5033394;28;20120;-71
2022/05/04 13:20:22;;;;;;;7.15;2.22;;;20.80;44.90;;;;;;5033298;28;20152;-70
2022/05/04 13:22:47;;;;;;;10.25;2.20;;;20.70;45.10;;;;;;5032271;28;20068;-70
2022/05/04 13:25:15;;;;;;;9.02;2.25;;;20.70;44.50;;;;;;5033054;28;20045;-71
2022/05/04 13:27:41;;;;;;;7.30;2.15;;;20.70;44.30;;;;;;5033074;28;20072;-71